sensor_id;sensor_type;location;lat;lon;timestamp;temperature;humidity
24408;DHT22;12542;50.924;4.516;2022-07-29T00:01:22;19.60;98.10
24408;DHT22;12542;50.924;4.516;2022-07-29T00:03:47;19.50;98.40
24408;DHT22;12542;50.924;4.516;2022-07-29T00:06:14;19.60;98.40
24408;DHT22;12542;50.924;4.516;2022-07-29T00:08:42;19.60;98.40
24408;DHT22;12542;50.924;4.516;2022-07-29T00:11:07;19.60;98.50
24408;DHT22;12542;50.924;4.516;2022-07-29T00:13:34;19.70;98.30
24408;DHT22;12542;50.924;4.516;2022-07-29T00:15:59;19.70;98.20
24408;DHT22;12542;50.924;4.516;2022-07-29T00:18:25;19.60;98.30
24408;DHT22;12542;50.924;4.516;2022-07-29T00:20:51;19.60;98.40
24408;DHT22;12542;50.924;4.516;2022-07-29T00:23:16;19.50;98.70
24408;DHT22;12542;50.924;4.516;2022-07-29T00:25:42;19.60;98.60
24408;DHT22;12542;50.924;4.516;2022-07-29T00:28:08;19.50;98.80
24408;DHT22;12542;50.924;4.516;2022-07-29T00:30:34;19.50;98.80
24408;DHT22;12542;50.924;4.516;2022-07-29T00:33:02;19.40;99.00
24408;DHT22;12542;50.924;4.516;2022-07-29T00:35:30;19.30;99.10
24408;DHT22;12542;50.924;4.516;2022-07-29T00:38:16;19.20;99.60
24408;DHT22;12542;50.924;4.516;2022-07-29T00:40:45;19.10;99.90
24408;DHT22;12542;50.924;4.516;2022-07-29T00:43:13;19.10;99.90
24408;DHT22;12542;50.924;4.516;2022-07-29T00:45:40;19.10;99.90
24408;DHT22;12542;50.924;4.516;2022-07-29T00:48:06;19.10;99.90
24408;DHT22;12542;50.924;4.516;2022-07-29T00:50:34;19.10;99.90
24408;DHT22;12542;50.924;4.516;2022-07-29T00:53:06;19.00;99.90
24408;DHT22;12542;50.924;4.516;2022-07-29T00:55:32;19.10;99.90
24408;DHT22;12542;50.924;4.516;2022-07-29T00:57:58;19.20;99.90
24408;DHT22;12542;50.924;4.516;2022-07-29T01:00:30;19.20;99.90
24408;DHT22;12542;50.924;4.516;2022-07-29T01:02:56;19.10;99.90
24408;DHT22;12542;50.924;4.516;2022-07-29T01:05:26;19.10;99.90
24408;DHT22;12542;50.924;4.516;2022-07-29T01:07:54;19.10;99.90
24408;DHT22;12542;50.924;4.516;2022-07-29T01:10:21;19.10;99.90
24408;DHT22;12542;50.924;4.516;2022-07-29T01:12:50;19.00;99.90
24408;DHT22;12542;50.924;4.516;2022-07-29T01:15:16;18.90;99.90
24408;DHT22;12542;50.924;4.516;2022-07-29T01:20:25;19.20;99.90
24408;DHT22;12542;50.924;4.516;2022-07-29T01:31:56;18.70;99.90
24408;DHT22;12542;50.924;4.516;2022-07-29T01:34:43;18.60;99.90
24408;DHT22;12542;50.924;4.516;2022-07-29T01:37:43;18.70;99.90
24408;DHT22;12542;50.924;4.516;2022-07-29T01:40:18;18.80;99.90
24408;DHT22;12542;50.924;4.516;2022-07-29T01:42:51;18.80;99.90
24408;DHT22;12542;50.924;4.516;2022-07-29T01:45:38;18.80;99.90
24408;DHT22;12542;50.924;4.516;2022-07-29T01:53:36;18.70;99.90
24408;DHT22;12542;50.924;4.516;2022-07-29T01:56:03;18.60;99.90
24408;DHT22;12542;50.924;4.516;2022-07-29T01:58:31;18.50;99.90
24408;DHT22;12542;50.924;4.516;2022-07-29T02:00:58;18.50;99.90
24408;DHT22;12542;50.924;4.516;2022-07-29T02:03:25;18.40;99.90
24408;DHT22;12542;50.924;4.516;2022-07-29T02:05:53;18.50;99.90
24408;DHT22;12542;50.924;4.516;2022-07-29T02:08:21;18.50;99.90
24408;DHT22;12542;50.924;4.516;2022-07-29T02:10:48;18.50;99.90
24408;DHT22;12542;50.924;4.516;2022-07-29T02:13:17;18.50;99.90
24408;DHT22;12542;50.924;4.516;2022-07-29T02:15:44;18.40;99.90
24408;DHT22;12542;50.924;4.516;2022-07-29T02:18:15;18.30;99.90
24408;DHT22;12542;50.924;4.516;2022-07-29T02:20:45;18.20;99.90
24408;DHT22;12542;50.924;4.516;2022-07-29T02:23:12;18.10;99.90
24408;DHT22;12542;50.924;4.516;2022-07-29T02:25:42;18.20;99.90
24408;DHT22;12542;50.924;4.516;2022-07-29T02:28:08;18.10;99.90
24408;DHT22;12542;50.924;4.516;2022-07-29T02:30:36;18.00;99.90
24408;DHT22;12542;50.924;4.516;2022-07-29T02:33:10;18.00;99.90
24408;DHT22;12542;50.924;4.516;2022-07-29T02:35:38;17.90;99.90
24408;DHT22;12542;50.924;4.516;2022-07-29T02:38:12;17.90;99.90
24408;DHT22;12542;50.924;4.516;2022-07-29T02:40:56;17.80;99.90
24408;DHT22;12542;50.924;4.516;2022-07-29T02:43:26;17.90;99.90
24408;DHT22;12542;50.924;4.516;2022-07-29T02:45:54;18.00;99.90
24408;DHT22;12542;50.924;4.516;2022-07-29T02:48:32;17.90;99.90
24408;DHT22;12542;50.924;4.516;2022-07-29T02:51:08;17.80;99.90
24408;DHT22;12542;50.924;4.516;2022-07-29T02:53:38;17.60;99.90
24408;DHT22;12542;50.924;4.516;2022-07-29T02:56:13;17.50;99.90
24408;DHT22;12542;50.924;4.516;2022-07-29T02:58:49;17.50;99.90
24408;DHT22;12542;50.924;4.516;2022-07-29T03:01:16;17.50;99.90
24408;DHT22;12542;50.924;4.516;2022-07-29T03:03:49;17.40;99.90
24408;DHT22;12542;50.924;4.516;2022-07-29T03:06:17;17.30;99.90
24408;DHT22;12542;50.924;4.516;2022-07-29T03:08:44;17.10;99.90
24408;DHT22;12542;50.924;4.516;2022-07-29T03:11:14;17.20;99.90
24408;DHT22;12542;50.924;4.516;2022-07-29T03:13:44;17.20;99.90
24408;DHT22;12542;50.924;4.516;2022-07-29T03:16:10;17.20;99.90
24408;DHT22;12542;50.924;4.516;2022-07-29T03:18:36;17.10;99.90
24408;DHT22;12542;50.924;4.516;2022-07-29T03:21:07;17.10;99.90
24408;DHT22;12542;50.924;4.516;2022-07-29T03:23:35;17.10;99.90
24408;DHT22;12542;50.924;4.516;2022-07-29T03:26:02;17.10;99.90
24408;DHT22;12542;50.924;4.516;2022-07-29T03:28:29;17.00;99.90
24408;DHT22;12542;50.924;4.516;2022-07-29T03:30:55;17.00;99.90
24408;DHT22;12542;50.924;4.516;2022-07-29T03:33:22;17.00;99.90
24408;DHT22;12542;50.924;4.516;2022-07-29T03:35:48;17.00;99.90
24408;DHT22;12542;50.924;4.516;2022-07-29T03:38:14;16.80;99.90
24408;DHT22;12542;50.924;4.516;2022-07-29T03:40:53;16.80;99.90
24408;DHT22;12542;50.924;4.516;2022-07-29T03:43:22;16.80;99.90
24408;DHT22;12542;50.924;4.516;2022-07-29T03:45:52;16.80;99.90
24408;DHT22;12542;50.924;4.516;2022-07-29T03:48:21;16.90;99.90
24408;DHT22;12542;50.924;4.516;2022-07-29T03:50:47;17.00;99.90
24408;DHT22;12542;50.924;4.516;2022-07-29T03:53:13;16.90;99.90
24408;DHT22;12542;50.924;4.516;2022-07-29T03:55:47;16.80;99.90
24408;DHT22;12542;50.924;4.516;2022-07-29T03:58:14;16.90;99.90
24408;DHT22;12542;50.924;4.516;2022-07-29T04:00:42;16.80;99.90
24408;DHT22;12542;50.924;4.516;2022-07-29T04:03:11;16.80;99.90
24408;DHT22;12542;50.924;4.516;2022-07-29T04:05:37;16.80;99.90
24408;DHT22;12542;50.924;4.516;2022-07-29T04:08:03;16.80;99.90
24408;DHT22;12542;50.924;4.516;2022-07-29T04:10:28;16.80;99.90
24408;DHT22;12542;50.924;4.516;2022-07-29T04:12:56;16.80;99.90
24408;DHT22;12542;50.924;4.516;2022-07-29T04:15:25;16.80;99.90
24408;DHT22;12542;50.924;4.516;2022-07-29T04:17:51;16.80;99.90
24408;DHT22;12542;50.924;4.516;2022-07-29T04:20:19;16.90;99.90
24408;DHT22;12542;50.924;4.516;2022-07-29T04:22:45;16.80;99.90
24408;DHT22;12542;50.924;4.516;2022-07-29T04:25:11;16.90;99.90
24408;DHT22;12542;50.924;4.516;2022-07-29T04:27:37;16.80;99.90
24408;DHT22;12542;50.924;4.516;2022-07-29T04:30:22;16.80;99.90
24408;DHT22;12542;50.924;4.516;2022-07-29T04:32:48;16.80;99.90
24408;DHT22;12542;50.924;4.516;2022-07-29T04:35:14;16.80;99.90
24408;DHT22;12542;50.924;4.516;2022-07-29T04:37:40;16.80;99.90
24408;DHT22;12542;50.924;4.516;2022-07-29T04:40:06;16.90;99.90
24408;DHT22;12542;50.924;4.516;2022-07-29T04:42:31;16.90;99.90
24408;DHT22;12542;50.924;4.516;2022-07-29T04:44:57;17.10;99.90
24408;DHT22;12542;50.924;4.516;2022-07-29T04:47:25;17.50;99.90
24408;DHT22;12542;50.924;4.516;2022-07-29T04:49:50;18.30;99.90
24408;DHT22;12542;50.924;4.516;2022-07-29T04:52:16;19.00;99.90
24408;DHT22;12542;50.924;4.516;2022-07-29T04:54:41;19.60;99.90
24408;DHT22;12542;50.924;4.516;2022-07-29T04:57:07;20.30;99.90
24408;DHT22;12542;50.924;4.516;2022-07-29T04:59:32;21.00;99.90
24408;DHT22;12542;50.924;4.516;2022-07-29T05:01:58;21.70;99.70
24408;DHT22;12542;50.924;4.516;2022-07-29T05:04:24;22.60;98.00
24408;DHT22;12542;50.924;4.516;2022-07-29T05:06:50;23.30;96.00
24408;DHT22;12542;50.924;4.516;2022-07-29T05:09:15;24.00;94.50
24408;DHT22;12542;50.924;4.516;2022-07-29T05:11:41;24.50;93.20
24408;DHT22;12542;50.924;4.516;2022-07-29T05:14:07;24.70;92.50
24408;DHT22;12542;50.924;4.516;2022-07-29T05:16:35;25.30;91.40
24408;DHT22;12542;50.924;4.516;2022-07-29T05:19:03;26.00;90.10
24408;DHT22;12542;50.924;4.516;2022-07-29T05:21:29;26.80;87.50
24408;DHT22;12542;50.924;4.516;2022-07-29T05:23:54;27.30;84.30
24408;DHT22;12542;50.924;4.516;2022-07-29T05:26:20;27.80;82.50
24408;DHT22;12542;50.924;4.516;2022-07-29T05:28:46;28.20;81.60
24408;DHT22;12542;50.924;4.516;2022-07-29T05:31:12;28.60;79.40
24408;DHT22;12542;50.924;4.516;2022-07-29T05:33:40;29.20;76.20
24408;DHT22;12542;50.924;4.516;2022-07-29T05:36:06;29.40;75.30
24408;DHT22;12542;50.924;4.516;2022-07-29T05:38:33;29.60;73.90
24408;DHT22;12542;50.924;4.516;2022-07-29T05:40:58;29.40;74.00
24408;DHT22;12542;50.924;4.516;2022-07-29T05:43:27;29.60;73.70
24408;DHT22;12542;50.924;4.516;2022-07-29T05:45:53;29.90;72.50
24408;DHT22;12542;50.924;4.516;2022-07-29T05:48:19;29.80;71.60
24408;DHT22;12542;50.924;4.516;2022-07-29T05:50:44;29.20;73.20
24408;DHT22;12542;50.924;4.516;2022-07-29T05:53:10;28.50;75.30
24408;DHT22;12542;50.924;4.516;2022-07-29T05:55:35;27.90;76.90
24408;DHT22;12542;50.924;4.516;2022-07-29T05:58:01;26.90;79.30
24408;DHT22;12542;50.924;4.516;2022-07-29T06:00:27;26.00;82.00
24408;DHT22;12542;50.924;4.516;2022-07-29T06:02:52;25.10;85.70
24408;DHT22;12542;50.924;4.516;2022-07-29T06:05:22;24.40;87.60
24408;DHT22;12542;50.924;4.516;2022-07-29T06:07:48;23.80;89.80
24408;DHT22;12542;50.924;4.516;2022-07-29T06:10:14;23.40;90.80
24408;DHT22;12542;50.924;4.516;2022-07-29T06:12:40;23.30;91.40
24408;DHT22;12542;50.924;4.516;2022-07-29T06:15:06;23.30;92.10
24408;DHT22;12542;50.924;4.516;2022-07-29T06:17:32;23.90;91.20
24408;DHT22;12542;50.924;4.516;2022-07-29T06:19:57;25.30;88.00
24408;DHT22;12542;50.924;4.516;2022-07-29T06:22:25;26.60;83.80
24408;DHT22;12542;50.924;4.516;2022-07-29T06:24:54;28.10;81.00
24408;DHT22;12542;50.924;4.516;2022-07-29T06:27:20;28.90;77.50
24408;DHT22;12542;50.924;4.516;2022-07-29T06:29:45;29.50;75.30
24408;DHT22;12542;50.924;4.516;2022-07-29T06:32:11;29.40;75.00
24408;DHT22;12542;50.924;4.516;2022-07-29T06:34:37;29.80;74.40
24408;DHT22;12542;50.924;4.516;2022-07-29T06:37:07;29.40;74.30
24408;DHT22;12542;50.924;4.516;2022-07-29T06:39:35;29.40;75.20
24408;DHT22;12542;50.924;4.516;2022-07-29T06:42:03;30.00;73.60
24408;DHT22;12542;50.924;4.516;2022-07-29T06:44:29;29.90;72.70
24408;DHT22;12542;50.924;4.516;2022-07-29T06:46:56;29.90;73.30
24408;DHT22;12542;50.924;4.516;2022-07-29T06:49:25;29.50;73.80
24408;DHT22;12542;50.924;4.516;2022-07-29T06:51:52;29.60;74.40
24408;DHT22;12542;50.924;4.516;2022-07-29T06:54:17;29.70;73.20
24408;DHT22;12542;50.924;4.516;2022-07-29T06:56:44;29.60;73.30
24408;DHT22;12542;50.924;4.516;2022-07-29T06:59:12;29.50;73.40
24408;DHT22;12542;50.924;4.516;2022-07-29T07:01:43;29.80;73.90
24408;DHT22;12542;50.924;4.516;2022-07-29T07:04:09;30.00;73.10
24408;DHT22;12542;50.924;4.516;2022-07-29T07:06:36;29.80;72.70
24408;DHT22;12542;50.924;4.516;2022-07-29T07:09:02;29.50;74.10
24408;DHT22;12542;50.924;4.516;2022-07-29T07:11:27;29.00;75.70
24408;DHT22;12542;50.924;4.516;2022-07-29T07:13:56;29.10;77.00
24408;DHT22;12542;50.924;4.516;2022-07-29T07:16:22;29.40;77.70
24408;DHT22;12542;50.924;4.516;2022-07-29T07:18:51;29.90;74.90
24408;DHT22;12542;50.924;4.516;2022-07-29T07:21:16;30.10;75.00
24408;DHT22;12542;50.924;4.516;2022-07-29T07:23:42;30.40;74.80
24408;DHT22;12542;50.924;4.516;2022-07-29T07:26:10;30.40;74.40
24408;DHT22;12542;50.924;4.516;2022-07-29T07:28:36;30.50;74.40
24408;DHT22;12542;50.924;4.516;2022-07-29T07:31:01;30.80;73.20
24408;DHT22;12542;50.924;4.516;2022-07-29T07:33:27;30.80;71.70
24408;DHT22;12542;50.924;4.516;2022-07-29T07:35:52;30.80;72.00
24408;DHT22;12542;50.924;4.516;2022-07-29T07:38:19;30.80;71.60
24408;DHT22;12542;50.924;4.516;2022-07-29T07:40:45;30.50;71.90
24408;DHT22;12542;50.924;4.516;2022-07-29T07:43:14;29.80;73.80
24408;DHT22;12542;50.924;4.516;2022-07-29T07:45:40;29.70;74.80
24408;DHT22;12542;50.924;4.516;2022-07-29T07:48:06;29.90;74.50
24408;DHT22;12542;50.924;4.516;2022-07-29T07:50:32;30.30;74.40
24408;DHT22;12542;50.924;4.516;2022-07-29T07:52:58;30.70;72.60
24408;DHT22;12542;50.924;4.516;2022-07-29T07:55:24;30.60;72.00
24408;DHT22;12542;50.924;4.516;2022-07-29T07:57:54;30.20;72.90
24408;DHT22;12542;50.924;4.516;2022-07-29T08:00:20;30.00;72.80
24408;DHT22;12542;50.924;4.516;2022-07-29T08:02:49;29.80;75.40
24408;DHT22;12542;50.924;4.516;2022-07-29T08:05:15;29.60;75.50
24408;DHT22;12542;50.924;4.516;2022-07-29T08:07:49;29.40;76.60
24408;DHT22;12542;50.924;4.516;2022-07-29T08:10:16;29.80;74.30
24408;DHT22;12542;50.924;4.516;2022-07-29T08:13:04;29.70;74.10
24408;DHT22;12542;50.924;4.516;2022-07-29T08:15:29;29.90;76.60
24408;DHT22;12542;50.924;4.516;2022-07-29T08:17:55;30.10;75.50
24408;DHT22;12542;50.924;4.516;2022-07-29T08:20:21;30.40;75.30
24408;DHT22;12542;50.924;4.516;2022-07-29T08:22:46;30.40;73.80
24408;DHT22;12542;50.924;4.516;2022-07-29T08:25:12;30.40;75.20
24408;DHT22;12542;50.924;4.516;2022-07-29T08:27:38;30.30;73.40
24408;DHT22;12542;50.924;4.516;2022-07-29T08:30:04;30.30;74.80
24408;DHT22;12542;50.924;4.516;2022-07-29T08:32:30;30.50;74.50
24408;DHT22;12542;50.924;4.516;2022-07-29T08:34:56;30.70;73.50
24408;DHT22;12542;50.924;4.516;2022-07-29T08:37:25;30.50;74.60
24408;DHT22;12542;50.924;4.516;2022-07-29T08:39:51;30.50;75.10
24408;DHT22;12542;50.924;4.516;2022-07-29T08:42:20;30.80;75.20
24408;DHT22;12542;50.924;4.516;2022-07-29T08:44:46;30.30;75.30
24408;DHT22;12542;50.924;4.516;2022-07-29T08:47:17;30.30;74.10
24408;DHT22;12542;50.924;4.516;2022-07-29T08:49:43;30.40;75.40
24408;DHT22;12542;50.924;4.516;2022-07-29T08:52:10;30.50;75.90
24408;DHT22;12542;50.924;4.516;2022-07-29T08:54:38;30.20;76.40
24408;DHT22;12542;50.924;4.516;2022-07-29T08:57:06;30.30;76.10
24408;DHT22;12542;50.924;4.516;2022-07-29T08:59:34;30.50;75.00
24408;DHT22;12542;50.924;4.516;2022-07-29T09:02:03;30.60;74.30
24408;DHT22;12542;50.924;4.516;2022-07-29T09:04:34;30.40;75.20
24408;DHT22;12542;50.924;4.516;2022-07-29T09:07:04;30.40;75.80
24408;DHT22;12542;50.924;4.516;2022-07-29T09:09:32;30.40;74.30
24408;DHT22;12542;50.924;4.516;2022-07-29T09:11:58;30.70;74.80
24408;DHT22;12542;50.924;4.516;2022-07-29T09:14:25;30.80;74.40
24408;DHT22;12542;50.924;4.516;2022-07-29T09:16:55;31.00;74.20
24408;DHT22;12542;50.924;4.516;2022-07-29T09:19:32;31.00;74.20
24408;DHT22;12542;50.924;4.516;2022-07-29T09:22:06;31.00;74.40
24408;DHT22;12542;50.924;4.516;2022-07-29T09:24:46;31.00;72.60
24408;DHT22;12542;50.924;4.516;2022-07-29T09:27:25;31.20;73.20
24408;DHT22;12542;50.924;4.516;2022-07-29T09:30:03;31.10;73.20
24408;DHT22;12542;50.924;4.516;2022-07-29T09:32:29;31.40;73.90
24408;DHT22;12542;50.924;4.516;2022-07-29T09:35:17;31.30;70.30
24408;DHT22;12542;50.924;4.516;2022-07-29T09:37:45;31.70;69.80
24408;DHT22;12542;50.924;4.516;2022-07-29T09:40:16;31.80;70.20
24408;DHT22;12542;50.924;4.516;2022-07-29T09:42:45;31.80;67.60
24408;DHT22;12542;50.924;4.516;2022-07-29T09:45:13;31.50;68.30
24408;DHT22;12542;50.924;4.516;2022-07-29T09:47:53;31.30;69.60
24408;DHT22;12542;50.924;4.516;2022-07-29T09:50:23;31.00;71.00
24408;DHT22;12542;50.924;4.516;2022-07-29T09:52:59;31.40;69.00
24408;DHT22;12542;50.924;4.516;2022-07-29T09:55:25;31.50;69.00
24408;DHT22;12542;50.924;4.516;2022-07-29T09:57:51;31.20;68.10
24408;DHT22;12542;50.924;4.516;2022-07-29T10:00:21;30.80;68.30
24408;DHT22;12542;50.924;4.516;2022-07-29T10:02:48;30.00;71.10
24408;DHT22;12542;50.924;4.516;2022-07-29T10:10:10;30.90;71.50
24408;DHT22;12542;50.924;4.516;2022-07-29T10:12:57;30.80;70.00
24408;DHT22;12542;50.924;4.516;2022-07-29T10:15:25;30.80;70.70
24408;DHT22;12542;50.924;4.516;2022-07-29T10:17:52;31.10;68.60
24408;DHT22;12542;50.924;4.516;2022-07-29T10:20:19;31.40;67.50
24408;DHT22;12542;50.924;4.516;2022-07-29T10:22:46;31.40;67.00
24408;DHT22;12542;50.924;4.516;2022-07-29T10:25:16;31.10;67.30
24408;DHT22;12542;50.924;4.516;2022-07-29T10:27:43;30.80;70.40
24408;DHT22;12542;50.924;4.516;2022-07-29T10:30:10;30.80;71.60
24408;DHT22;12542;50.924;4.516;2022-07-29T10:32:41;30.80;69.60
24408;DHT22;12542;50.924;4.516;2022-07-29T10:40:43;31.00;67.40
24408;DHT22;12542;50.924;4.516;2022-07-29T10:43:35;30.00;67.20
24408;DHT22;12542;50.924;4.516;2022-07-29T10:46:04;29.90;68.30
24408;DHT22;12542;50.924;4.516;2022-07-29T10:48:33;29.80;69.60
24408;DHT22;12542;50.924;4.516;2022-07-29T10:51:04;30.20;70.40
24408;DHT22;12542;50.924;4.516;2022-07-29T10:53:53;30.20;67.90
24408;DHT22;12542;50.924;4.516;2022-07-29T10:56:32;30.30;70.80
24408;DHT22;12542;50.924;4.516;2022-07-29T11:01:46;30.80;65.20
24408;DHT22;12542;50.924;4.516;2022-07-29T11:04:15;30.80;67.30
24408;DHT22;12542;50.924;4.516;2022-07-29T11:09:25;30.60;64.70
24408;DHT22;12542;50.924;4.516;2022-07-29T11:11:52;30.80;67.70
24408;DHT22;12542;50.924;4.516;2022-07-29T11:14:57;30.90;66.60
24408;DHT22;12542;50.924;4.516;2022-07-29T11:17:24;31.30;66.20
24408;DHT22;12542;50.924;4.516;2022-07-29T11:20:30;31.20;64.40
24408;DHT22;12542;50.924;4.516;2022-07-29T11:22:55;31.70;63.00
24408;DHT22;12542;50.924;4.516;2022-07-29T11:25:21;30.60;65.90
24408;DHT22;12542;50.924;4.516;2022-07-29T11:27:47;30.20;65.40
24408;DHT22;12542;50.924;4.516;2022-07-29T11:30:13;30.40;66.10
24408;DHT22;12542;50.924;4.516;2022-07-29T11:32:41;30.90;67.10
24408;DHT22;12542;50.924;4.516;2022-07-29T11:35:19;31.20;65.40
24408;DHT22;12542;50.924;4.516;2022-07-29T11:38:26;31.10;66.80
24408;DHT22;12542;50.924;4.516;2022-07-29T11:43:50;31.30;64.00
24408;DHT22;12542;50.924;4.516;2022-07-29T11:49:07;31.20;61.60
24408;DHT22;12542;50.924;4.516;2022-07-29T11:51:35;31.50;61.60
24408;DHT22;12542;50.924;4.516;2022-07-29T11:54:02;30.70;63.10
24408;DHT22;12542;50.924;4.516;2022-07-29T11:56:31;30.30;66.00
24408;DHT22;12542;50.924;4.516;2022-07-29T11:59:04;30.10;64.20
24408;DHT22;12542;50.924;4.516;2022-07-29T12:01:35;30.00;64.80
24408;DHT22;12542;50.924;4.516;2022-07-29T12:04:05;29.90;65.20
24408;DHT22;12542;50.924;4.516;2022-07-29T12:06:33;30.00;64.50
24408;DHT22;12542;50.924;4.516;2022-07-29T12:08:59;30.50;63.00
24408;DHT22;12542;50.924;4.516;2022-07-29T12:11:25;30.60;63.80
24408;DHT22;12542;50.924;4.516;2022-07-29T12:13:53;30.70;65.80
24408;DHT22;12542;50.924;4.516;2022-07-29T12:16:20;30.60;65.00
24408;DHT22;12542;50.924;4.516;2022-07-29T12:19:03;30.30;64.20
24408;DHT22;12542;50.924;4.516;2022-07-29T12:21:46;30.30;63.70
24408;DHT22;12542;50.924;4.516;2022-07-29T12:24:13;30.60;62.50
24408;DHT22;12542;50.924;4.516;2022-07-29T12:26:50;30.40;61.90
24408;DHT22;12542;50.924;4.516;2022-07-29T12:31:53;29.80;63.20
24408;DHT22;12542;50.924;4.516;2022-07-29T12:34:24;30.10;63.00
24408;DHT22;12542;50.924;4.516;2022-07-29T12:36:52;30.30;64.70
24408;DHT22;12542;50.924;4.516;2022-07-29T12:39:18;31.10;66.10
24408;DHT22;12542;50.924;4.516;2022-07-29T12:41:46;31.50;61.30
24408;DHT22;12542;50.924;4.516;2022-07-29T12:44:13;31.90;63.50
24408;DHT22;12542;50.924;4.516;2022-07-29T12:46:39;32.10;61.20
24408;DHT22;12542;50.924;4.516;2022-07-29T12:49:04;32.60;63.70
24408;DHT22;12542;50.924;4.516;2022-07-29T12:51:38;32.90;61.30
24408;DHT22;12542;50.924;4.516;2022-07-29T16:46:03;27.60;67.30
24408;DHT22;12542;50.924;4.516;2022-07-29T16:52:19;27.30;67.40
24408;DHT22;12542;50.924;4.516;2022-07-29T17:12:21;26.90;70.50
24408;DHT22;12542;50.924;4.516;2022-07-29T17:29:33;26.50;72.50
24408;DHT22;12542;50.924;4.516;2022-07-29T17:35:37;26.40;72.50
